KEKS

Ennis - Big Sky Airport

Ennis, Montana, USA
METAR KEKS 230815Z AUTO 00000KT 10SM BKN016 BKN022 OVC095 07/06 A3001 RMK AO2
Observed Flight Rules
May-23 @ 08:15 UTC (33 minutes ago) Marginal Visual Flight Rules
Visibility Clouds
10 miles
  • Broken at 1,600' AGL
  • Broken at 2,200' AGL
  • Overcast at 9,500' AGL
Temperatures Readings
Current 7°C / 45°F
Dewpoint 6°C / 43°F
Humidity 93%
Altimeter 30.01" Hg
Pressure 1016 hPa
Elevation 1641
METAR KEKS 230815Z AUTO 00000KT 10SM BKN016 BKN022 OVC095 07/06 A3001 RMK AO2
Observed Flight Rules
May-23 @ 08:15 UTC
(33 minutes ago)
MVFR
Clouds
  • Broken at 1,600' AGL
  • Broken at 2,200' AGL
  • Overcast at 9,500' AGL
Temperature Dewpoint
7°C / 45°F 6°C / 43°F
Humidity Altimeter Pressure
93% 30.01" Hg 1016 hPa